Time;durP1;ratioP1;P1;durP2;ratioP2;P2;SDS_P1;SDS_P2;PMS_P1;PMS_P2;Temp;Humidity;BMP_temperature;BMP_pressure;BME280_temperature;BME280_humidity;BME280_pressure;Samples;Min_cycle;Max_cycle;Signal;HPM_P1;HPM_P2
2022/04/29 00:00:51;;;;;;;3.88;2.60;;;8.90;79.80;;;;;;5025978;28;20025;-83
2022/04/29 00:03:18;;;;;;;2.85;2.55;;;8.90;79.70;;;;;;5020246;28;20053;-84
2022/04/29 00:05:46;;;;;;;4.45;3.70;;;8.80;79.50;;;;;;5034060;28;20029;-84
2022/04/29 00:08:12;;;;;;;5.20;3.60;;;8.80;79.70;;;;;;5045674;28;20042;-84
2022/04/29 00:10:40;;;;;;;4.25;3.70;;;8.70;80.10;;;;;;5040854;28;20025;-84
2022/04/29 00:13:08;;;;;;;4.63;3.63;;;8.70;80.60;;;;;;5039944;28;20400;-85
2022/04/29 00:15:37;;;;;;;4.78;3.53;;;8.60;80.80;;;;;;5039354;28;20048;-85
2022/04/29 00:18:03;;;;;;;4.07;3.63;;;8.60;81.10;;;;;;5038376;28;20033;-84
2022/04/29 00:20:29;;;;;;;4.82;3.30;;;8.50;81.60;;;;;;5039496;28;20031;-84
2022/04/29 00:22:55;;;;;;;4.60;3.22;;;8.50;81.70;;;;;;5037901;28;20355;-83
2022/04/29 00:25:21;;;;;;;3.25;2.80;;;8.50;81.80;;;;;;5037038;28;20536;-84
2022/04/29 00:27:47;;;;;;;4.25;2.90;;;8.50;81.90;;;;;;5039822;28;20029;-84
2022/04/29 00:30:14;;;;;;;3.55;3.03;;;8.50;81.90;;;;;;5039895;28;20030;-84
2022/04/29 00:32:50;;;;;;;4.03;2.90;;;8.50;81.90;;;;;;5045144;28;20040;-84
2022/04/29 00:35:16;;;;;;;3.15;2.70;;;8.50;81.90;;;;;;5033094;28;20080;-84
2022/04/29 00:37:53;;;;;;;4.18;3.10;;;8.40;81.90;;;;;;5037512;28;20022;-84
2022/04/29 00:40:32;;;;;;;3.72;3.08;;;8.40;81.90;;;;;;5037107;28;20025;-84
2022/04/29 00:43:08;;;;;;;3.58;2.97;;;8.40;81.90;;;;;;5036354;28;20120;-83
2022/04/29 00:45:34;;;;;;;3.65;2.90;;;8.40;82.10;;;;;;5034335;28;20097;-84
2022/04/29 00:47:59;;;;;;;4.07;3.45;;;8.30;82.20;;;;;;5036878;28;20501;-84
2022/04/29 00:50:28;;;;;;;3.97;2.85;;;8.20;82.50;;;;;;5037690;28;20120;-84
2022/04/29 00:53:05;;;;;;;3.22;2.92;;;8.20;83.10;;;;;;5038510;28;20052;-83
2022/04/29 00:55:34;;;;;;;4.05;3.25;;;8.20;83.50;;;;;;5048644;28;20037;-83
2022/04/29 00:58:08;;;;;;;3.13;2.67;;;8.20;83.70;;;;;;5048099;28;20021;-83
2022/04/29 01:00:36;;;;;;;4.88;3.20;;;8.20;84.00;;;;;;5038947;28;20057;-84
2022/04/29 01:03:05;;;;;;;3.75;2.85;;;8.10;83.80;;;;;;5045405;28;20021;-83
2022/04/29 01:09:22;;;;;;;4.38;3.05;;;8.10;84.70;;;;;;5042726;28;20099;-86
2022/04/29 01:12:31;;;;;;;3.17;2.85;;;8.10;84.90;;;;;;5029992;28;20033;-85
2022/04/29 01:15:07;;;;;;;3.40;2.80;;;8.10;84.90;;;;;;5023323;28;20056;-84
2022/04/29 01:18:33;;;;;;;4.45;3.40;;;8.10;85.40;;;;;;4990951;28;20129;-84
2022/04/29 01:22:11;;;;;;;5.32;3.65;;;8.10;85.70;;;;;;4950108;28;20059;-83
2022/04/29 01:24:42;;;;;;;3.05;2.70;;;7.90;86.80;;;;;;4916981;29;20048;-83
2022/04/29 01:27:13;;;;;;;3.70;2.78;;;7.90;87.70;;;;;;4979006;28;20408;-83
2022/04/29 01:29:45;;;;;;;3.58;3.25;;;7.80;88.20;;;;;;5019251;28;20045;-84
2022/04/29 01:36:08;;;;;;;3.83;2.92;;;7.80;89.50;;;;;;4996968;28;20037;-84
2022/04/29 01:38:35;;;;;;;4.43;2.85;;;7.80;90.10;;;;;;5003069;28;20459;-84
2022/04/29 01:41:02;;;;;;;3.17;2.88;;;7.70;90.20;;;;;;5039564;28;20032;-83
2022/04/29 01:43:32;;;;;;;2.97;2.67;;;7.70;90.50;;;;;;5032385;28;20025;-83
2022/04/29 01:46:15;;;;;;;2.75;2.40;;;7.70;90.60;;;;;;5019500;28;20486;-83
2022/04/29 01:49:21;;;;;;;2.65;2.45;;;7.60;90.70;;;;;;5002748;28;20136;-84
2022/04/29 01:52:01;;;;;;;4.05;2.78;;;7.60;90.70;;;;;;5033436;28;20069;-85
2022/04/29 01:54:27;;;;;;;4.00;3.05;;;7.60;90.70;;;;;;5035829;28;20057;-83
2022/04/29 01:57:37;;;;;;;3.53;3.03;;;7.50;90.90;;;;;;5036115;28;20032;-83
2022/04/29 02:01:12;;;;;;;4.68;3.70;;;7.50;91.00;;;;;;4975623;28;20023;-84
2022/04/29 02:04:33;;;;;;;3.10;2.80;;;7.50;91.10;;;;;;4977070;28;20447;-85
2022/04/29 02:07:50;;;;;;;3.05;2.75;;;7.40;91.10;;;;;;4956401;29;20095;-85
2022/04/29 02:11:29;;;;;;;3.38;2.78;;;7.40;91.30;;;;;;4973212;28;20043;-84
2022/04/29 02:14:39;;;;;;;3.50;3.13;;;7.40;91.40;;;;;;4941096;29;20065;-84
2022/04/29 02:18:13;;;;;;;2.83;2.63;;;7.30;91.40;;;;;;4878051;29;20049;-84
2022/04/29 02:20:59;;;;;;;5.15;3.60;;;7.30;91.50;;;;;;4877632;29;20103;-85
2022/04/29 02:23:24;;;;;;;3.47;3.17;;;7.20;91.50;;;;;;4972664;28;20084;-83
2022/04/29 02:25:51;;;;;;;4.07;3.10;;;7.20;91.50;;;;;;5024921;28;20022;-85
2022/04/29 02:28:17;;;;;;;4.55;3.55;;;7.20;91.60;;;;;;5039744;28;20022;-85
2022/04/29 02:30:43;;;;;;;3.63;3.28;;;7.20;91.60;;;;;;5038623;28;20517;-85
2022/04/29 02:33:08;;;;;;;4.10;3.50;;;7.10;91.70;;;;;;5037542;28;20025;-85
2022/04/29 02:35:40;;;;;;;3.35;3.05;;;7.10;91.80;;;;;;5037842;28;20033;-84
2022/04/29 02:38:06;;;;;;;2.50;2.30;;;7.10;91.80;;;;;;5021836;28;20075;-85
2022/04/29 02:40:32;;;;;;;3.53;3.17;;;7.20;91.60;;;;;;5038532;28;20204;-84
2022/04/29 02:42:57;;;;;;;3.72;3.33;;;7.20;91.50;;;;;;5037991;28;20034;-85
2022/04/29 02:45:23;;;;;;;4.03;3.13;;;7.20;91.20;;;;;;5038663;28;20036;-84
2022/04/29 02:47:49;;;;;;;4.53;3.33;;;7.10;90.90;;;;;;5040630;28;20033;-86
2022/04/29 02:50:15;;;;;;;4.38;3.00;;;7.10;90.90;;;;;;5039841;28;20124;-85
2022/04/29 02:52:41;;;;;;;3.45;2.83;;;7.00;90.90;;;;;;5040535;28;20147;-85
2022/04/29 02:55:07;;;;;;;2.75;2.20;;;7.00;91.10;;;;;;5041128;28;20117;-84
2022/04/29 02:57:33;;;;;;;3.42;2.92;;;7.00;91.20;;;;;;5039703;28;20087;-85
2022/04/29 02:59:58;;;;;;;4.40;3.50;;;6.90;91.20;;;;;;5040411;28;20034;-85
2022/04/29 03:02:24;;;;;;;3.28;2.78;;;6.90;91.20;;;;;;5040456;28;20363;-84
2022/04/29 03:04:50;;;;;;;3.08;2.65;;;6.90;91.30;;;;;;5041628;28;20163;-84
2022/04/29 03:07:16;;;;;;;4.03;2.92;;;6.80;91.30;;;;;;5053695;28;20423;-84
2022/04/29 03:09:41;;;;;;;3.17;2.63;;;6.80;91.20;;;;;;5053822;28;20026;-84
2022/04/29 03:12:13;;;;;;;3.13;2.60;;;6.80;91.40;;;;;;5055357;28;20125;-84
2022/04/29 03:14:39;;;;;;;3.33;2.78;;;6.80;91.50;;;;;;5041520;28;20017;-84
2022/04/29 03:17:05;;;;;;;3.05;2.75;;;6.80;91.50;;;;;;5052943;28;20698;-83
2022/04/29 03:19:31;;;;;;;3.55;2.78;;;6.80;91.50;;;;;;5040553;28;20018;-83
2022/04/29 03:21:57;;;;;;;3.97;3.03;;;6.80;91.50;;;;;;5052874;28;20024;-83
2022/04/29 03:24:22;;;;;;;4.50;2.70;;;6.80;91.50;;;;;;5053205;28;20029;-83
2022/04/29 03:26:54;;;;;;;3.53;2.78;;;6.70;91.70;;;;;;5049269;28;20025;-84
2022/04/29 03:29:20;;;;;;;3.35;2.40;;;6.80;91.80;;;;;;5040827;28;20033;-85
2022/04/29 03:31:45;;;;;;;4.18;2.55;;;6.80;91.90;;;;;;5041047;28;20035;-84
2022/04/29 03:34:11;;;;;;;4.40;2.60;;;6.70;91.80;;;;;;5043452;28;20388;-85
2022/04/29 03:36:37;;;;;;;2.50;2.30;;;6.70;92.00;;;;;;5044009;28;20040;-83
2022/04/29 03:39:03;;;;;;;3.35;2.78;;;6.80;92.00;;;;;;5043066;28;20049;-83
2022/04/29 03:41:29;;;;;;;2.83;2.50;;;6.80;91.90;;;;;;5040233;28;20032;-84
2022/04/29 03:43:54;;;;;;;2.97;2.70;;;6.70;91.90;;;;;;5040595;28;20061;-84
2022/04/29 03:46:20;;;;;;;3.72;3.13;;;6.70;92.10;;;;;;5041632;28;20484;-84
2022/04/29 03:51:30;;;;;;;3.47;2.90;;;6.70;92.10;;;;;;5040745;28;20512;-85
2022/04/29 03:53:56;;;;;;;3.42;2.45;;;6.60;92.10;;;;;;5040417;28;20112;-83
2022/04/29 03:56:21;;;;;;;4.68;2.67;;;6.60;92.20;;;;;;5039842;28;20444;-84
2022/04/29 03:58:47;;;;;;;3.42;2.63;;;6.60;92.20;;;;;;5049222;28;20021;-84
2022/04/29 04:01:13;;;;;;;3.10;2.80;;;6.60;92.30;;;;;;5044101;28;20029;-84
2022/04/29 04:03:40;;;;;;;3.40;2.50;;;6.70;92.30;;;;;;5040646;28;20025;-84
2022/04/29 04:08:50;;;;;;;4.97;2.97;;;6.60;92.30;;;;;;5047140;28;20135;-83
2022/04/29 04:11:17;;;;;;;4.20;2.78;;;6.60;92.60;;;;;;5042475;28;20120;-84
2022/04/29 04:13:43;;;;;;;4.15;2.85;;;6.70;92.80;;;;;;5041280;28;20049;-83
2022/04/29 04:16:08;;;;;;;3.38;3.00;;;6.60;93.20;;;;;;5039908;28;20040;-82
2022/04/29 04:18:34;;;;;;;3.85;2.85;;;6.60;93.40;;;;;;5047245;28;20490;-83
2022/04/29 04:21:00;;;;;;;3.78;3.30;;;6.60;93.40;;;;;;5042164;28;20022;-84
2022/04/29 04:23:26;;;;;;;4.97;3.80;;;6.50;93.30;;;;;;5040815;28;20428;-83
2022/04/29 04:25:51;;;;;;;6.55;3.00;;;6.50;93.30;;;;;;5041642;28;20486;-83
2022/04/29 04:28:17;;;;;;;4.13;2.80;;;6.50;93.30;;;;;;5040858;28;20025;-84
2022/04/29 04:30:43;;;;;;;5.75;3.45;;;6.50;93.20;;;;;;5040800;28;20034;-84
2022/04/29 04:33:09;;;;;;;4.35;3.65;;;6.50;93.00;;;;;;5043525;28;20025;-83
2022/04/29 04:35:34;;;;;;;5.07;3.10;;;6.40;92.70;;;;;;5055971;28;20069;-84
2022/04/29 04:38:00;;;;;;;3.80;3.15;;;6.40;92.80;;;;;;5050272;28;20025;-84
2022/04/29 04:40:26;;;;;;;7.20;4.53;;;6.40;93.00;;;;;;5046005;28;20081;-84
2022/04/29 04:42:53;;;;;;;4.07;3.22;;;6.50;93.50;;;;;;5055373;28;20005;-84
2022/04/29 04:45:19;;;;;;;5.20;4.05;;;6.40;93.90;;;;;;5056617;28;20051;-84
2022/04/29 04:47:45;;;;;;;4.85;3.65;;;6.40;94.20;;;;;;5054848;28;20037;-84
2022/04/29 04:50:11;;;;;;;4.35;3.80;;;6.40;94.50;;;;;;5053403;28;20061;-83
2022/04/29 04:52:39;;;;;;;5.07;3.83;;;6.50;94.70;;;;;;5053385;28;20034;-82
2022/04/29 04:55:06;;;;;;;3.63;3.30;;;6.40;94.80;;;;;;5053602;28;20095;-80
2022/04/29 04:57:32;;;;;;;5.65;3.30;;;6.50;94.90;;;;;;5054435;28;20009;-85
2022/04/29 04:59:58;;;;;;;6.03;4.15;;;6.60;94.70;;;;;;5056293;28;20056;-85
2022/04/29 05:02:23;;;;;;;5.82;4.30;;;6.70;94.20;;;;;;5057196;28;20021;-84
2022/04/29 05:04:50;;;;;;;5.53;4.10;;;6.70;94.00;;;;;;5056572;28;20017;-84
2022/04/29 05:07:30;;;;;;;4.85;4.03;;;6.80;93.90;;;;;;5055360;28;20045;-85
2022/04/29 05:09:56;;;;;;;5.20;4.20;;;6.90;93.80;;;;;;5053517;28;20026;-84
2022/04/29 05:12:21;;;;;;;6.15;4.18;;;7.10;93.30;;;;;;5075159;28;20071;-86
2022/04/29 05:14:47;;;;;;;5.22;3.55;;;7.20;92.80;;;;;;5077207;28;20032;-82
2022/04/29 05:17:13;;;;;;;4.03;3.63;;;7.40;92.30;;;;;;5070846;28;20057;-84
2022/04/29 05:19:38;;;;;;;4.90;3.67;;;7.60;91.90;;;;;;5063466;28;20036;-84
2022/04/29 05:22:04;;;;;;;4.35;3.63;;;7.70;91.40;;;;;;5057111;28;20068;-84
2022/04/29 05:24:30;;;;;;;4.30;3.67;;;7.90;91.00;;;;;;5044983;28;20025;-83
2022/04/29 05:26:56;;;;;;;5.57;4.10;;;8.00;90.60;;;;;;5045451;28;20384;-84
2022/04/29 05:29:22;;;;;;;4.40;4.00;;;8.00;90.10;;;;;;5039068;28;20081;-84
2022/04/29 05:31:48;;;;;;;4.38;3.38;;;8.10;90.00;;;;;;5039241;28;20053;-84
2022/04/29 05:34:15;;;;;;;3.72;2.97;;;8.20;89.60;;;;;;5048475;28;20116;-84
2022/04/29 05:36:40;;;;;;;3.75;3.35;;;8.30;89.40;;;;;;5045815;28;20032;-85
2022/04/29 05:44:36;;;;;;;5.78;4.53;;;8.40;87.60;;;;;;5066253;28;20118;-85
2022/04/29 05:47:02;;;;;;;6.00;4.30;;;8.50;87.40;;;;;;5065334;28;20020;-84
2022/04/29 05:49:28;;;;;;;5.53;4.30;;;8.50;87.10;;;;;;5066081;28;20032;-85
2022/04/29 05:51:53;;;;;;;5.30;3.80;;;8.60;87.20;;;;;;5066656;28;20133;-85
2022/04/29 05:54:19;;;;;;;6.03;3.90;;;8.70;86.80;;;;;;5048883;28;20081;-85
2022/04/29 05:56:47;;;;;;;5.05;4.25;;;8.90;86.10;;;;;;5046497;28;20029;-85
2022/04/29 05:59:12;;;;;;;7.72;4.28;;;9.00;85.30;;;;;;5045116;28;20021;-85
2022/04/29 06:01:38;;;;;;;5.93;3.83;;;9.10;84.70;;;;;;5042290;28;20025;-85
2022/04/29 06:04:04;;;;;;;3.97;3.08;;;9.20;84.50;;;;;;5039260;28;20469;-85
2022/04/29 06:06:29;;;;;;;3.92;3.08;;;9.40;84.10;;;;;;5053761;28;20022;-84
2022/04/29 06:08:55;;;;;;;5.38;3.30;;;9.60;83.40;;;;;;5037233;28;20188;-85
2022/04/29 06:11:21;;;;;;;5.65;4.00;;;10.00;82.40;;;;;;5051200;28;20026;-84
2022/04/29 06:13:48;;;;;;;5.68;3.53;;;12.00;78.60;;;;;;5062933;28;20067;-84
2022/04/29 06:16:14;;;;;;;5.60;2.95;;;15.60;69.00;;;;;;5057852;28;20043;-85
2022/04/29 06:18:39;;;;;;;10.48;3.20;;;18.90;58.60;;;;;;5055026;28;20028;-85
2022/04/29 06:21:05;;;;;;;3.58;2.22;;;21.70;50.80;;;;;;5056612;28;20028;-86
2022/04/29 06:23:31;;;;;;;2.70;2.47;;;23.30;45.80;;;;;;5049723;28;20040;-85
2022/04/29 06:25:57;;;;;;;2.17;2.03;;;24.30;42.90;;;;;;5036906;28;20113;-85
2022/04/29 06:28:23;;;;;;;2.00;1.80;;;24.90;40.70;;;;;;5036131;28;20481;-85
2022/04/29 06:30:49;;;;;;;2.65;2.40;;;25.40;40.00;;;;;;5035687;28;20052;-84
2022/04/29 06:33:16;;;;;;;2.53;2.22;;;26.10;38.90;;;;;;5038336;28;20026;-84
2022/04/29 06:35:44;;;;;;;2.25;1.90;;;26.80;38.00;;;;;;5037006;28;20028;-84
2022/04/29 06:38:11;;;;;;;2.13;1.85;;;27.50;36.90;;;;;;5034803;28;20036;-83
2022/04/29 06:40:37;;;;;;;1.90;1.80;;;27.70;36.10;;;;;;5034936;28;20022;-84
2022/04/29 06:43:04;;;;;;;2.67;2.20;;;27.50;35.60;;;;;;5036795;28;20029;-84
2022/04/29 06:45:40;;;;;;;2.50;1.98;;;26.80;35.60;;;;;;5020056;28;20042;-84
2022/04/29 06:48:16;;;;;;;3.90;2.72;;;26.50;36.00;;;;;;5041274;28;20025;-85
2022/04/29 06:50:42;;;;;;;2.63;2.30;;;25.60;35.20;;;;;;5020972;28;20374;-86
2022/04/29 06:53:08;;;;;;;3.65;2.72;;;23.70;36.70;;;;;;5036025;28;20028;-85
2022/04/29 06:55:39;;;;;;;3.13;2.55;;;20.70;39.60;;;;;;5039175;28;20052;-85
2022/04/29 06:58:05;;;;;;;3.63;2.40;;;18.20;43.90;;;;;;5036640;28;20021;-85
2022/04/29 07:00:31;;;;;;;3.58;3.28;;;16.50;47.30;;;;;;5035200;28;20098;-84
2022/04/29 07:02:57;;;;;;;4.13;2.85;;;15.30;50.20;;;;;;5040082;28;20120;-84
2022/04/29 07:05:24;;;;;;;2.83;2.55;;;14.30;52.70;;;;;;5057453;28;20028;-84
2022/04/29 07:07:50;;;;;;;3.53;3.05;;;13.60;54.70;;;;;;5075287;28;20028;-83
2022/04/29 07:10:17;;;;;;;5.18;2.53;;;13.30;56.30;;;;;;5078596;28;20037;-84
2022/04/29 07:12:46;;;;;;;4.57;2.80;;;13.10;57.10;;;;;;5068034;28;20029;-87
2022/04/29 07:15:13;;;;;;;4.30;3.33;;;13.00;57.60;;;;;;5061637;28;20029;-85
2022/04/29 07:17:44;;;;;;;8.07;2.50;;;13.00;57.90;;;;;;5045128;28;20013;-83
2022/04/29 07:20:12;;;;;;;5.78;2.88;;;13.00;58.80;;;;;;5044092;28;20022;-85
2022/04/29 07:22:39;;;;;;;4.20;2.58;;;13.00;58.40;;;;;;5042457;28;20049;-85
2022/04/29 07:25:07;;;;;;;4.80;3.28;;;13.20;58.60;;;;;;5040110;28;20053;-84
2022/04/29 07:27:32;;;;;;;7.53;3.50;;;13.20;58.10;;;;;;5059616;28;20041;-84
2022/04/29 07:30:03;;;;;;;4.70;3.53;;;13.30;58.30;;;;;;5064220;28;20079;-85
2022/04/29 07:32:30;;;;;;;3.35;3.05;;;13.50;57.40;;;;;;5063338;28;20031;-87
2022/04/29 07:43:10;;;;;;;5.00;3.35;;;13.60;58.00;;;;;;5063313;28;20039;-85
2022/04/29 07:45:38;;;;;;;7.45;3.72;;;13.70;58.30;;;;;;5063171;28;20036;-84
2022/04/29 07:48:06;;;;;;;2.75;2.55;;;13.80;56.20;;;;;;5062686;28;20135;-86
2022/04/29 07:50:32;;;;;;;5.68;2.90;;;14.00;54.80;;;;;;5062294;28;20040;-86
2022/04/29 07:52:59;;;;;;;2.75;2.55;;;14.30;53.40;;;;;;5059369;28;20056;-85
2022/04/29 07:55:26;;;;;;;3.92;2.92;;;14.60;52.00;;;;;;5042695;28;20029;-84
2022/04/29 07:57:51;;;;;;;4.18;2.30;;;14.60;50.70;;;;;;5046200;28;20022;-83
2022/04/29 08:00:18;;;;;;;2.88;2.55;;;14.60;50.70;;;;;;5057872;28;20089;-83
2022/04/29 08:02:43;;;;;;;7.85;2.97;;;14.70;50.70;;;;;;5055174;28;20073;-85
2022/04/29 08:05:09;;;;;;;3.38;2.70;;;14.90;50.10;;;;;;5042922;28;20079;-86
2022/04/29 08:07:36;;;;;;;3.80;2.80;;;15.00;50.40;;;;;;5053497;28;20064;-86
2022/04/29 08:10:02;;;;;;;2.92;2.30;;;15.10;50.30;;;;;;5073593;28;20029;-85
2022/04/29 08:12:28;;;;;;;5.20;2.78;;;15.30;50.10;;;;;;5076353;28;20009;-87
2022/04/29 08:14:54;;;;;;;4.88;3.20;;;15.30;49.70;;;;;;5064472;28;20447;-86
2022/04/29 08:17:24;;;;;;;5.35;3.22;;;15.30;48.70;;;;;;5059400;28;20022;-86
2022/04/29 08:19:50;;;;;;;5.13;3.20;;;15.20;45.70;;;;;;5053047;28;20052;-87
2022/04/29 08:22:17;;;;;;;4.05;2.55;;;15.30;44.70;;;;;;5051249;28;20044;-86
2022/04/29 08:24:43;;;;;;;4.50;3.45;;;15.40;44.20;;;;;;5043828;28;20413;-85
2022/04/29 08:27:10;;;;;;;4.32;2.33;;;15.50;43.90;;;;;;5044254;28;20489;-85
2022/04/29 08:29:37;;;;;;;3.13;2.00;;;15.50;44.20;;;;;;5039884;28;20032;-85
2022/04/29 08:32:04;;;;;;;5.70;3.13;;;15.80;44.20;;;;;;5041030;28;20022;-86
2022/04/29 08:34:30;;;;;;;4.03;2.60;;;15.90;43.00;;;;;;5039820;28;20501;-85
2022/04/29 08:36:56;;;;;;;5.35;2.83;;;16.00;42.80;;;;;;5047980;28;20024;-84
2022/04/29 08:39:22;;;;;;;3.28;2.30;;;16.10;43.10;;;;;;5053822;28;20033;-84
2022/04/29 08:41:50;;;;;;;3.17;2.22;;;16.20;43.20;;;;;;5054293;28;20187;-85
2022/04/29 08:44:19;;;;;;;4.00;3.15;;;16.50;42.80;;;;;;5052839;28;20036;-86
2022/04/29 08:46:45;;;;;;;4.15;2.25;;;16.60;41.90;;;;;;5043461;28;20367;-85
2022/04/29 08:49:11;;;;;;;3.20;2.75;;;16.80;42.00;;;;;;5040693;28;20025;-85
2022/04/29 08:51:40;;;;;;;5.90;2.47;;;17.00;41.10;;;;;;5038944;28;20105;-85
2022/04/29 08:54:06;;;;;;;5.00;2.88;;;17.10;41.00;;;;;;5037696;28;20097;-85
2022/04/29 08:59:19;;;;;;;4.47;2.90;;;17.40;40.60;;;;;;5037622;28;20160;-85
2022/04/29 09:01:45;;;;;;;5.50;2.58;;;17.50;39.90;;;;;;5039419;28;20049;-85
2022/04/29 09:04:11;;;;;;;3.65;2.90;;;17.60;39.90;;;;;;5037572;28;20033;-86
2022/04/29 09:06:50;;;;;;;4.25;2.45;;;17.60;39.80;;;;;;5036567;28;20029;-85
2022/04/29 09:09:21;;;;;;;5.47;2.72;;;17.70;39.70;;;;;;5044484;28;20033;-86
2022/04/29 09:11:47;;;;;;;3.88;2.28;;;17.70;39.40;;;;;;5057739;28;20450;-86
2022/04/29 09:14:20;;;;;;;5.35;3.08;;;17.60;39.40;;;;;;5057648;28;20052;-86
2022/04/29 09:16:48;;;;;;;4.50;2.90;;;17.80;39.10;;;;;;5056378;28;20047;-85
2022/04/29 09:19:31;;;;;;;3.03;2.70;;;17.80;38.40;;;;;;5056497;28;20437;-88
2022/04/29 09:22:07;;;;;;;5.82;2.50;;;18.20;38.70;;;;;;5057367;28;20142;-86
2022/04/29 09:24:33;;;;;;;6.97;3.10;;;18.40;38.00;;;;;;5047262;28;20095;-86
2022/04/29 09:27:03;;;;;;;6.93;3.17;;;18.80;38.60;;;;;;5038627;28;20466;-87
2022/04/29 09:29:30;;;;;;;7.13;2.83;;;19.20;38.00;;;;;;5039003;28;20381;-87
2022/04/29 09:32:00;;;;;;;3.97;2.72;;;19.20;38.00;;;;;;5037709;28;20040;-85
2022/04/29 09:34:58;;;;;;;4.72;3.05;;;19.10;38.60;;;;;;5045266;28;20105;-84
2022/04/29 09:37:25;;;;;;;5.50;3.10;;;19.10;38.70;;;;;;5044774;28;20025;-86
2022/04/29 09:40:05;;;;;;;3.63;2.83;;;18.50;39.40;;;;;;5036511;28;20029;-85
2022/04/29 09:42:43;;;;;;;4.22;2.95;;;18.00;40.70;;;;;;5058039;28;20033;-87
2022/04/29 09:45:15;;;;;;;5.00;2.70;;;17.70;41.40;;;;;;5060071;28;20020;-85
2022/04/29 09:47:41;;;;;;;3.13;2.30;;;17.80;41.20;;;;;;5061906;28;20021;-85
2022/04/29 09:50:07;;;;;;;2.90;2.53;;;18.10;40.50;;;;;;5061806;28;20041;-86
2022/04/29 09:52:43;;;;;;;3.50;2.75;;;18.20;40.60;;;;;;5061366;28;20036;-86
2022/04/29 09:55:18;;;;;;;5.28;3.10;;;18.50;40.30;;;;;;5031386;28;20029;-85
2022/04/29 09:57:52;;;;;;;4.80;2.75;;;18.60;40.00;;;;;;5020959;28;20025;-86
2022/04/29 10:00:19;;;;;;;2.30;2.10;;;18.60;39.70;;;;;;5022488;28;20022;-84
2022/04/29 10:02:49;;;;;;;8.30;3.30;;;18.80;40.20;;;;;;5037470;28;20026;-86
2022/04/29 10:05:14;;;;;;;3.80;2.70;;;19.00;38.70;;;;;;5037286;28;20091;-85
2022/04/29 10:07:42;;;;;;;3.13;2.83;;;18.80;39.10;;;;;;5036850;28;20093;-85
2022/04/29 10:10:12;;;;;;;4.35;2.33;;;18.70;39.40;;;;;;5036766;28;20089;-87
2022/04/29 10:12:47;;;;;;;3.10;2.17;;;18.90;40.10;;;;;;5052316;28;20446;-86
2022/04/29 10:15:16;;;;;;;4.82;2.60;;;19.30;39.90;;;;;;5042161;28;20028;-87
2022/04/29 10:23:30;;;;;;;4.88;2.13;;;19.30;37.70;;;;;;5042182;28;20060;-86
2022/04/29 10:25:56;;;;;;;2.47;2.25;;;19.50;38.40;;;;;;5042937;28;20033;-86
2022/04/29 10:28:24;;;;;;;2.25;2.05;;;19.80;37.40;;;;;;5041263;28;20541;-87
2022/04/29 10:31:09;;;;;;;4.63;2.72;;;20.00;37.50;;;;;;5039130;28;20035;-85
2022/04/29 10:33:37;;;;;;;7.00;2.83;;;20.10;37.10;;;;;;5041613;28;20021;-85
2022/04/29 10:36:08;;;;;;;3.25;2.22;;;19.90;37.10;;;;;;5040912;28;20090;-86
2022/04/29 10:38:43;;;;;;;3.22;2.40;;;19.60;37.80;;;;;;5039867;28;20026;-85
2022/04/29 10:41:11;;;;;;;2.22;2.00;;;19.70;37.80;;;;;;5043025;28;20121;-86
2022/04/29 10:43:38;;;;;;;3.17;2.17;;;19.90;37.40;;;;;;5063331;28;20052;-85
2022/04/29 10:46:04;;;;;;;2.58;1.70;;;20.40;37.30;;;;;;5066456;28;20333;-86
2022/04/29 10:48:30;;;;;;;2.05;1.92;;;20.90;36.90;;;;;;5062444;28;20036;-86
2022/04/29 10:50:56;;;;;;;2.45;2.17;;;21.10;36.50;;;;;;5060679;28;20075;-86
2022/04/29 10:53:23;;;;;;;5.75;2.88;;;21.30;36.70;;;;;;5054228;28;20033;-85
2022/04/29 10:55:49;;;;;;;4.30;2.42;;;21.60;36.00;;;;;;5057885;28;20017;-85
2022/04/29 10:58:46;;;;;;;2.35;2.13;;;21.50;35.20;;;;;;5047289;28;20060;-86
2022/04/29 11:01:14;;;;;;;4.15;2.08;;;21.30;36.00;;;;;;5040465;28;20030;-86
2022/04/29 11:03:47;;;;;;;2.40;2.13;;;21.40;36.20;;;;;;5051093;28;20040;-85
2022/04/29 11:06:14;;;;;;;2.90;2.33;;;21.50;36.30;;;;;;5060445;28;20102;-85
2022/04/29 11:08:44;;;;;;;3.85;2.65;;;21.00;35.50;;;;;;5059467;28;20520;-85
2022/04/29 11:11:12;;;;;;;5.20;2.15;;;20.50;35.70;;;;;;5061590;28;20049;-86
2022/04/29 11:13:44;;;;;;;5.20;2.33;;;20.10;36.50;;;;;;5056837;28;20478;-87
2022/04/29 11:16:11;;;;;;;4.63;2.42;;;19.90;36.40;;;;;;5042876;28;20081;-87
2022/04/29 11:18:37;;;;;;;2.10;1.77;;;19.70;36.40;;;;;;5043399;28;20029;-84
2022/04/29 11:26:52;;;;;;;3.40;2.40;;;20.50;36.60;;;;;;5033386;28;20077;-86
2022/04/29 11:29:18;;;;;;;2.78;2.20;;;21.00;36.40;;;;;;5039424;28;20025;-86
2022/04/29 11:31:44;;;;;;;5.03;2.50;;;21.30;36.10;;;;;;5042627;28;20025;-86
2022/04/29 11:34:13;;;;;;;4.05;2.67;;;21.30;35.60;;;;;;5041834;28;20120;-87
2022/04/29 11:36:40;;;;;;;5.22;2.40;;;21.30;36.30;;;;;;5038904;28;20555;-86
2022/04/29 11:39:19;;;;;;;4.70;2.67;;;21.30;36.80;;;;;;5039037;28;20025;-85
2022/04/29 11:41:59;;;;;;;2.50;2.17;;;21.50;36.30;;;;;;5037634;28;20112;-87
2022/04/29 11:44:34;;;;;;;4.03;2.10;;;21.80;36.40;;;;;;5045267;28;20017;-87
2022/04/29 11:47:00;;;;;;;3.90;2.42;;;22.00;35.20;;;;;;5071287;28;20430;-86
2022/04/29 11:49:32;;;;;;;3.35;2.22;;;22.00;34.60;;;;;;5065506;28;20033;-86
2022/04/29 11:52:22;;;;;;;4.57;2.38;;;21.90;35.00;;;;;;5061792;28;20057;-87
2022/04/29 11:54:49;;;;;;;4.30;2.78;;;21.70;35.10;;;;;;5047712;28;20068;-86
2022/04/29 11:57:15;;;;;;;5.85;3.03;;;21.40;35.20;;;;;;5074314;28;20175;-85
2022/04/29 11:59:43;;;;;;;5.65;2.70;;;21.10;35.80;;;;;;5061592;28;20021;-86
2022/04/29 12:02:48;;;;;;;3.38;2.85;;;21.00;35.70;;;;;;5065872;28;20036;-86
2022/04/29 12:05:32;;;;;;;5.22;3.10;;;20.90;36.60;;;;;;5063498;28;20045;-85
2022/04/29 12:11:31;;;;;;;3.97;2.90;;;21.20;36.80;;;;;;5061065;28;20032;-86
2022/04/29 12:14:49;;;;;;;4.20;3.10;;;21.60;36.40;;;;;;5065587;28;20017;-85
2022/04/29 12:17:38;;;;;;;3.78;2.95;;;21.80;36.20;;;;;;5015847;28;20375;-85
2022/04/29 12:20:05;;;;;;;2.72;2.40;;;22.30;35.50;;;;;;5051279;28;20207;-88
2022/04/29 12:22:34;;;;;;;3.00;2.60;;;22.30;35.50;;;;;;5063091;28;20036;-85
2022/04/29 12:25:23;;;;;;;4.28;3.13;;;22.40;35.40;;;;;;5039290;28;20025;-87
2022/04/29 12:28:20;;;;;;;4.70;3.35;;;22.50;35.30;;;;;;5021538;28;20123;-87
2022/04/29 12:36:55;;;;;;;11.13;5.35;;;22.50;36.50;;;;;;5037549;28;20063;-86
2022/04/29 12:39:25;;;;;;;8.73;4.43;;;22.10;37.10;;;;;;5061382;28;20025;-85
2022/04/29 12:42:02;;;;;;;4.50;4.05;;;21.80;37.60;;;;;;5060708;28;20025;-85
2022/04/29 12:47:35;;;;;;;5.95;4.82;;;21.70;38.40;;;;;;5047049;28;20033;-86
2022/04/29 12:50:29;;;;;;;6.72;4.10;;;21.70;46.40;;;;;;5048949;28;20205;-85
2022/04/29 12:53:18;;;;;;;3.55;2.67;;;21.60;46.80;;;;;;5052911;28;20040;-85
2022/04/29 12:55:46;;;;;;;3.85;3.05;;;21.20;37.60;;;;;;5042933;28;20025;-87
2022/04/29 12:58:22;;;;;;;4.07;2.95;;;21.30;37.40;;;;;;5055007;28;20496;-85
2022/04/29 13:00:56;;;;;;;4.45;3.83;;;21.30;37.50;;;;;;5057639;28;20021;-87
2022/04/29 13:03:30;;;;;;;11.10;5.43;;;21.60;37.30;;;;;;5058124;28;20036;-84
2022/04/29 13:06:35;;;;;;;3.83;3.40;;;21.70;37.50;;;;;;5058428;28;20029;-87
2022/04/29 13:09:15;;;;;;;4.40;3.30;;;21.60;37.90;;;;;;5057681;28;20025;-88
2022/04/29 13:11:43;;;;;;;5.43;2.90;;;21.60;38.00;;;;;;5058119;28;20049;-85
2022/04/29 13:14:12;;;;;;;4.30;2.85;;;21.90;37.50;;;;;;5059502;28;20028;-86
2022/04/29 13:16:38;;;;;;;6.18;2.95;;;22.20;37.00;;;;;;5060419;28;20021;-85
2022/04/29 13:19:03;;;;;;;4.05;3.40;;;22.60;35.90;;;;;;5059780;28;20084;-84
2022/04/29 13:21:29;;;;;;;3.00;2.80;;;22.50;36.10;;;;;;5058287;28;20029;-86
2022/04/29 13:23:56;;;;;;;6.38;3.60;;;22.60;36.10;;;;;;5049261;28;20402;-86
2022/04/29 13:26:22;;;;;;;5.47;3.67;;;22.20;35.50;;;;;;5041630;28;20017;-83
2022/04/29 13:28:47;;;;;;;4.07;3.00;;;21.80;37.20;;;;;;5047534;28;20033;-84
2022/04/29 13:31:13;;;;;;;5.43;3.60;;;21.60;37.60;;;;;;5048507;28;20025;-85
2022/04/29 13:33:39;;;;;;;3.53;2.85;;;21.60;37.20;;;;;;5039763;28;20053;-84
2022/04/29 13:36:06;;;;;;;6.38;3.67;;;21.40;37.70;;;;;;5055685;28;20027;-85
2022/04/29 13:38:32;;;;;;;4.15;3.70;;;21.60;37.00;;;;;;5046693;28;20029;-83
2022/04/29 13:40:58;;;;;;;3.15;2.85;;;21.50;37.20;;;;;;5038340;28;20018;-85
2022/04/29 13:43:29;;;;;;;5.57;3.45;;;21.30;37.70;;;;;;5041336;28;20025;-85
2022/04/29 13:45:58;;;;;;;3.80;3.50;;;21.00;38.20;;;;;;5025482;28;20033;-86
2022/04/29 13:48:24;;;;;;;3.50;2.75;;;20.60;38.80;;;;;;5040621;28;20029;-86
2022/04/29 13:50:50;;;;;;;4.82;3.22;;;20.40;38.60;;;;;;5055200;28;20025;-84
2022/04/29 13:53:16;;;;;;;3.95;3.45;;;20.20;38.50;;;;;;5057082;28;20097;-85
2022/04/29 13:55:47;;;;;;;3.58;2.78;;;20.00;39.20;;;;;;5055058;28;20033;-85
2022/04/29 13:58:15;;;;;;;5.47;3.78;;;19.70;40.00;;;;;;5052341;28;20033;-83
2022/04/29 14:00:44;;;;;;;4.20;3.33;;;19.60;39.90;;;;;;5042080;28;20021;-84
2022/04/29 14:03:14;;;;;;;5.80;3.55;;;19.40;40.70;;;;;;5038670;28;20029;-84